Terminal Aerodrome Forecast
Issued by NWS Wakefield, VA

Home | Current Version | Previous Version | Text Only | Print | Product List | Glossary On
Versions: 1 2 3 4 5 6 7 8 9 10 11 12 13 14 15 16 17 18 19 20 21
337
FTUS41 KAKQ 030537
TAFORF
TAF
KORF 030537Z 0306/0406 22011KT P6SM BKN120
     FM030730 21011KT 4SM -RA BR BKN040 OVC070
     FM031000 24012KT 4SM -RA BR OVC015
     FM031800 25011KT P6SM SCT015 BKN035
     FM032100 24008KT P6SM BKN050=

USA.gov is the U.S. government's official web portal to all federal, state and local government web resources and services.